sensor_id;sensor_type;location;lat;lon;timestamp;P1;durP1;ratioP1;P2;durP2;ratioP2
17631;SDS011;8934;51.194;17.150;2023-06-01T00:00:46;7.20;;;5.13;;
17631;SDS011;8934;51.194;17.150;2023-06-01T00:03:36;7.82;;;5.32;;
17631;SDS011;8934;51.194;17.150;2023-06-01T00:06:24;10.10;;;5.45;;
17631;SDS011;8934;51.194;17.150;2023-06-01T00:09:14;7.85;;;5.00;;
17631;SDS011;8934;51.194;17.150;2023-06-01T00:12:03;9.20;;;5.28;;
17631;SDS011;8934;51.194;17.150;2023-06-01T00:14:51;9.45;;;5.68;;
17631;SDS011;8934;51.194;17.150;2023-06-01T00:17:39;9.90;;;5.68;;
17631;SDS011;8934;51.194;17.150;2023-06-01T00:20:28;8.48;;;5.53;;
17631;SDS011;8934;51.194;17.150;2023-06-01T00:23:17;9.82;;;6.05;;
17631;SDS011;8934;51.194;17.150;2023-06-01T00:26:06;7.35;;;4.97;;
17631;SDS011;8934;51.194;17.150;2023-06-01T00:28:54;8.70;;;5.13;;
17631;SDS011;8934;51.194;17.150;2023-06-01T00:31:42;9.20;;;6.20;;
17631;SDS011;8934;51.194;17.150;2023-06-01T00:34:30;7.50;;;5.20;;
17631;SDS011;8934;51.194;17.150;2023-06-01T00:37:19;9.77;;;5.85;;
17631;SDS011;8934;51.194;17.150;2023-06-01T00:40:07;8.82;;;5.32;;
17631;SDS011;8934;51.194;17.150;2023-06-01T00:42:56;8.23;;;4.93;;
17631;SDS011;8934;51.194;17.150;2023-06-01T00:45:43;7.60;;;5.45;;
17631;SDS011;8934;51.194;17.150;2023-06-01T00:48:32;10.02;;;5.45;;
17631;SDS011;8934;51.194;17.150;2023-06-01T00:51:19;6.70;;;4.90;;
17631;SDS011;8934;51.194;17.150;2023-06-01T00:54:08;8.15;;;5.43;;
17631;SDS011;8934;51.194;17.150;2023-06-01T00:56:57;7.47;;;5.43;;
17631;SDS011;8934;51.194;17.150;2023-06-01T00:59:45;7.60;;;5.07;;
17631;SDS011;8934;51.194;17.150;2023-06-01T01:02:33;9.00;;;5.10;;
17631;SDS011;8934;51.194;17.150;2023-06-01T01:05:23;11.23;;;6.20;;
17631;SDS011;8934;51.194;17.150;2023-06-01T01:08:13;11.13;;;6.20;;
17631;SDS011;8934;51.194;17.150;2023-06-01T01:11:06;9.07;;;5.95;;
17631;SDS011;8934;51.194;17.150;2023-06-01T01:14:03;8.90;;;5.53;;
17631;SDS011;8934;51.194;17.150;2023-06-01T01:16:57;6.35;;;4.70;;
17631;SDS011;8934;51.194;17.150;2023-06-01T01:19:53;10.05;;;5.53;;
17631;SDS011;8934;51.194;17.150;2023-06-01T01:26:14;9.07;;;6.13;;
17631;SDS011;8934;51.194;17.150;2023-06-01T01:29:12;10.82;;;6.40;;
17631;SDS011;8934;51.194;17.150;2023-06-01T01:32:03;11.40;;;6.05;;
17631;SDS011;8934;51.194;17.150;2023-06-01T01:34:52;7.35;;;5.28;;
17631;SDS011;8934;51.194;17.150;2023-06-01T01:37:49;9.65;;;5.50;;
17631;SDS011;8934;51.194;17.150;2023-06-01T01:43:25;8.35;;;5.93;;
17631;SDS011;8934;51.194;17.150;2023-06-01T01:46:18;8.93;;;6.03;;
17631;SDS011;8934;51.194;17.150;2023-06-01T01:49:12;7.32;;;5.45;;
17631;SDS011;8934;51.194;17.150;2023-06-01T01:52:05;10.57;;;5.45;;
17631;SDS011;8934;51.194;17.150;2023-06-01T01:54:56;11.57;;;5.95;;
17631;SDS011;8934;51.194;17.150;2023-06-01T01:57:45;10.43;;;6.18;;
17631;SDS011;8934;51.194;17.150;2023-06-01T02:00:33;8.35;;;5.28;;
17631;SDS011;8934;51.194;17.150;2023-06-01T02:03:22;8.90;;;5.07;;
17631;SDS011;8934;51.194;17.150;2023-06-01T02:06:10;8.68;;;5.20;;
17631;SDS011;8934;51.194;17.150;2023-06-01T02:08:58;7.88;;;5.30;;
17631;SDS011;8934;51.194;17.150;2023-06-01T02:11:47;7.93;;;4.70;;
17631;SDS011;8934;51.194;17.150;2023-06-01T02:14:36;10.43;;;5.40;;
17631;SDS011;8934;51.194;17.150;2023-06-01T02:17:24;8.77;;;5.15;;
17631;SDS011;8934;51.194;17.150;2023-06-01T02:20:15;7.90;;;5.35;;
17631;SDS011;8934;51.194;17.150;2023-06-01T02:23:03;7.22;;;4.82;;
17631;SDS011;8934;51.194;17.150;2023-06-01T02:25:51;8.38;;;5.45;;
17631;SDS011;8934;51.194;17.150;2023-06-01T02:28:39;8.43;;;5.05;;
17631;SDS011;8934;51.194;17.150;2023-06-01T02:31:28;9.35;;;5.25;;
17631;SDS011;8934;51.194;17.150;2023-06-01T02:34:16;7.35;;;5.20;;
17631;SDS011;8934;51.194;17.150;2023-06-01T02:37:06;8.05;;;4.85;;
17631;SDS011;8934;51.194;17.150;2023-06-01T02:39:55;10.02;;;5.78;;
17631;SDS011;8934;51.194;17.150;2023-06-01T02:42:42;6.53;;;5.38;;
17631;SDS011;8934;51.194;17.150;2023-06-01T02:45:30;8.25;;;4.93;;
17631;SDS011;8934;51.194;17.150;2023-06-01T02:48:18;8.20;;;5.20;;
17631;SDS011;8934;51.194;17.150;2023-06-01T02:51:06;8.85;;;4.88;;
17631;SDS011;8934;51.194;17.150;2023-06-01T02:53:55;7.80;;;4.95;;
17631;SDS011;8934;51.194;17.150;2023-06-01T02:56:45;8.63;;;5.60;;
17631;SDS011;8934;51.194;17.150;2023-06-01T02:59:42;8.82;;;5.88;;
17631;SDS011;8934;51.194;17.150;2023-06-01T03:02:30;6.78;;;4.80;;
17631;SDS011;8934;51.194;17.150;2023-06-01T03:05:18;9.70;;;5.47;;
17631;SDS011;8934;51.194;17.150;2023-06-01T03:08:27;8.00;;;5.00;;
17631;SDS011;8934;51.194;17.150;2023-06-01T03:11:16;10.07;;;5.30;;
17631;SDS011;8934;51.194;17.150;2023-06-01T03:14:03;9.05;;;5.47;;
17631;SDS011;8934;51.194;17.150;2023-06-01T03:16:51;7.25;;;5.43;;
17631;SDS011;8934;51.194;17.150;2023-06-01T03:19:40;7.50;;;5.38;;
17631;SDS011;8934;51.194;17.150;2023-06-01T03:22:37;6.15;;;4.80;;
17631;SDS011;8934;51.194;17.150;2023-06-01T03:25:25;11.05;;;5.50;;
17631;SDS011;8934;51.194;17.150;2023-06-01T03:28:14;10.15;;;5.78;;
17631;SDS011;8934;51.194;17.150;2023-06-01T03:31:02;8.18;;;5.57;;
17631;SDS011;8934;51.194;17.150;2023-06-01T03:33:50;8.95;;;5.53;;
17631;SDS011;8934;51.194;17.150;2023-06-01T03:36:38;8.07;;;6.38;;
17631;SDS011;8934;51.194;17.150;2023-06-01T03:39:27;9.77;;;5.95;;
17631;SDS011;8934;51.194;17.150;2023-06-01T03:42:15;8.32;;;5.60;;
17631;SDS011;8934;51.194;17.150;2023-06-01T03:45:05;10.40;;;6.50;;
17631;SDS011;8934;51.194;17.150;2023-06-01T03:47:53;8.27;;;6.28;;
17631;SDS011;8934;51.194;17.150;2023-06-01T03:50:41;11.32;;;6.50;;
17631;SDS011;8934;51.194;17.150;2023-06-01T03:53:28;8.32;;;5.50;;
17631;SDS011;8934;51.194;17.150;2023-06-01T03:56:17;10.80;;;6.47;;
17631;SDS011;8934;51.194;17.150;2023-06-01T03:59:06;9.98;;;6.30;;
17631;SDS011;8934;51.194;17.150;2023-06-01T04:01:59;18.38;;;7.05;;
17631;SDS011;8934;51.194;17.150;2023-06-01T04:04:49;19.13;;;8.73;;
17631;SDS011;8934;51.194;17.150;2023-06-01T04:07:37;19.20;;;8.45;;
17631;SDS011;8934;51.194;17.150;2023-06-01T04:10:25;17.10;;;9.40;;
17631;SDS011;8934;51.194;17.150;2023-06-01T04:13:12;15.45;;;8.18;;
17631;SDS011;8934;51.194;17.150;2023-06-01T04:16:00;16.27;;;8.25;;
17631;SDS011;8934;51.194;17.150;2023-06-01T04:18:48;11.98;;;8.07;;
17631;SDS011;8934;51.194;17.150;2023-06-01T04:21:39;11.60;;;8.15;;
17631;SDS011;8934;51.194;17.150;2023-06-01T04:24:27;11.38;;;7.70;;
17631;SDS011;8934;51.194;17.150;2023-06-01T04:27:15;13.02;;;8.57;;
17631;SDS011;8934;51.194;17.150;2023-06-01T04:30:03;13.75;;;8.73;;
17631;SDS011;8934;51.194;17.150;2023-06-01T04:32:55;11.30;;;8.30;;
17631;SDS011;8934;51.194;17.150;2023-06-01T04:35:45;12.70;;;8.07;;
17631;SDS011;8934;51.194;17.150;2023-06-01T04:38:33;11.77;;;8.52;;
17631;SDS011;8934;51.194;17.150;2023-06-01T04:41:21;16.15;;;10.13;;
17631;SDS011;8934;51.194;17.150;2023-06-01T04:44:09;13.50;;;9.45;;
17631;SDS011;8934;51.194;17.150;2023-06-01T04:46:58;18.42;;;12.52;;
17631;SDS011;8934;51.194;17.150;2023-06-01T04:49:49;17.33;;;11.23;;
17631;SDS011;8934;51.194;17.150;2023-06-01T04:52:39;17.13;;;10.85;;
17631;SDS011;8934;51.194;17.150;2023-06-01T04:55:28;17.15;;;11.63;;
17631;SDS011;8934;51.194;17.150;2023-06-01T04:58:17;15.40;;;10.30;;
17631;SDS011;8934;51.194;17.150;2023-06-01T05:01:05;15.70;;;10.95;;
17631;SDS011;8934;51.194;17.150;2023-06-01T05:03:53;14.88;;;10.70;;
17631;SDS011;8934;51.194;17.150;2023-06-01T05:06:43;17.80;;;11.43;;
17631;SDS011;8934;51.194;17.150;2023-06-01T05:09:33;14.05;;;10.27;;
17631;SDS011;8934;51.194;17.150;2023-06-01T05:12:21;16.95;;;10.30;;
17631;SDS011;8934;51.194;17.150;2023-06-01T05:15:09;16.58;;;10.27;;
17631;SDS011;8934;51.194;17.150;2023-06-01T05:17:58;12.27;;;8.27;;
17631;SDS011;8934;51.194;17.150;2023-06-01T05:20:46;12.85;;;8.02;;
17631;SDS011;8934;51.194;17.150;2023-06-01T05:23:34;10.73;;;6.32;;
17631;SDS011;8934;51.194;17.150;2023-06-01T05:26:23;10.70;;;6.82;;
17631;SDS011;8934;51.194;17.150;2023-06-01T05:29:11;9.70;;;6.38;;
17631;SDS011;8934;51.194;17.150;2023-06-01T05:31:59;11.20;;;6.40;;
17631;SDS011;8934;51.194;17.150;2023-06-01T05:34:47;8.77;;;5.25;;
17631;SDS011;8934;51.194;17.150;2023-06-01T05:37:36;10.02;;;5.70;;
17631;SDS011;8934;51.194;17.150;2023-06-01T05:40:24;11.65;;;5.47;;
17631;SDS011;8934;51.194;17.150;2023-06-01T05:43:13;7.70;;;5.57;;
17631;SDS011;8934;51.194;17.150;2023-06-01T05:46:02;8.90;;;5.38;;
17631;SDS011;8934;51.194;17.150;2023-06-01T05:48:50;7.43;;;5.07;;
17631;SDS011;8934;51.194;17.150;2023-06-01T05:51:39;10.25;;;5.38;;
17631;SDS011;8934;51.194;17.150;2023-06-01T05:54:28;8.15;;;5.85;;
17631;SDS011;8934;51.194;17.150;2023-06-01T05:57:16;11.88;;;5.43;;
17631;SDS011;8934;51.194;17.150;2023-06-01T06:00:06;11.13;;;5.88;;
17631;SDS011;8934;51.194;17.150;2023-06-01T06:03:00;10.63;;;5.97;;
17631;SDS011;8934;51.194;17.150;2023-06-01T06:05:49;8.30;;;5.05;;
17631;SDS011;8934;51.194;17.150;2023-06-01T06:08:37;7.65;;;4.30;;
17631;SDS011;8934;51.194;17.150;2023-06-01T06:11:25;9.75;;;4.78;;
17631;SDS011;8934;51.194;17.150;2023-06-01T06:14:13;8.95;;;4.50;;
17631;SDS011;8934;51.194;17.150;2023-06-01T06:17:02;9.55;;;5.18;;
17631;SDS011;8934;51.194;17.150;2023-06-01T06:19:50;6.75;;;3.92;;
17631;SDS011;8934;51.194;17.150;2023-06-01T06:22:38;6.45;;;3.63;;
17631;SDS011;8934;51.194;17.150;2023-06-01T06:25:25;11.00;;;3.70;;
17631;SDS011;8934;51.194;17.150;2023-06-01T06:28:13;8.13;;;4.25;;
17631;SDS011;8934;51.194;17.150;2023-06-01T06:31:01;9.98;;;4.13;;
17631;SDS011;8934;51.194;17.150;2023-06-01T06:33:50;8.13;;;3.85;;
17631;SDS011;8934;51.194;17.150;2023-06-01T06:36:38;12.52;;;4.93;;
17631;SDS011;8934;51.194;17.150;2023-06-01T06:39:26;9.15;;;4.25;;
17631;SDS011;8934;51.194;17.150;2023-06-01T06:42:13;6.88;;;3.55;;
17631;SDS011;8934;51.194;17.150;2023-06-01T06:45:02;4.85;;;3.25;;
17631;SDS011;8934;51.194;17.150;2023-06-01T06:47:51;7.47;;;3.63;;
17631;SDS011;8934;51.194;17.150;2023-06-01T06:50:40;6.88;;;3.58;;
17631;SDS011;8934;51.194;17.150;2023-06-01T06:53:30;9.70;;;3.95;;
17631;SDS011;8934;51.194;17.150;2023-06-01T06:56:19;9.88;;;3.55;;
17631;SDS011;8934;51.194;17.150;2023-06-01T06:59:06;9.27;;;3.58;;
17631;SDS011;8934;51.194;17.150;2023-06-01T07:01:55;5.10;;;3.47;;
17631;SDS011;8934;51.194;17.150;2023-06-01T07:04:43;7.30;;;4.20;;
17631;SDS011;8934;51.194;17.150;2023-06-01T07:07:32;7.57;;;3.53;;
17631;SDS011;8934;51.194;17.150;2023-06-01T07:10:19;5.72;;;3.17;;
17631;SDS011;8934;51.194;17.150;2023-06-01T07:13:07;5.97;;;3.10;;
17631;SDS011;8934;51.194;17.150;2023-06-01T07:15:54;7.10;;;3.25;;
17631;SDS011;8934;51.194;17.150;2023-06-01T07:18:42;4.55;;;2.80;;
17631;SDS011;8934;51.194;17.150;2023-06-01T07:21:29;6.55;;;3.05;;
17631;SDS011;8934;51.194;17.150;2023-06-01T07:24:18;3.85;;;2.80;;
17631;SDS011;8934;51.194;17.150;2023-06-01T07:27:06;4.22;;;2.83;;
17631;SDS011;8934;51.194;17.150;2023-06-01T07:29:54;7.65;;;2.67;;
17631;SDS011;8934;51.194;17.150;2023-06-01T07:32:42;5.20;;;2.88;;
17631;SDS011;8934;51.194;17.150;2023-06-01T07:35:30;5.20;;;3.15;;
17631;SDS011;8934;51.194;17.150;2023-06-01T07:38:19;6.88;;;2.92;;
17631;SDS011;8934;51.194;17.150;2023-06-01T07:41:09;5.72;;;2.70;;
17631;SDS011;8934;51.194;17.150;2023-06-01T07:43:57;7.72;;;2.63;;
17631;SDS011;8934;51.194;17.150;2023-06-01T07:46:45;6.82;;;3.38;;
17631;SDS011;8934;51.194;17.150;2023-06-01T07:49:33;4.55;;;3.17;;
17631;SDS011;8934;51.194;17.150;2023-06-01T07:52:22;4.30;;;2.80;;
17631;SDS011;8934;51.194;17.150;2023-06-01T07:55:10;17.42;;;4.10;;
17631;SDS011;8934;51.194;17.150;2023-06-01T07:57:59;6.70;;;3.17;;
17631;SDS011;8934;51.194;17.150;2023-06-01T08:00:47;3.78;;;2.60;;
17631;SDS011;8934;51.194;17.150;2023-06-01T08:03:35;5.57;;;3.60;;
17631;SDS011;8934;51.194;17.150;2023-06-01T08:06:23;3.78;;;2.80;;
17631;SDS011;8934;51.194;17.150;2023-06-01T08:09:12;5.43;;;2.72;;
17631;SDS011;8934;51.194;17.150;2023-06-01T08:12:00;4.15;;;2.92;;
17631;SDS011;8934;51.194;17.150;2023-06-01T08:14:49;7.97;;;2.90;;
17631;SDS011;8934;51.194;17.150;2023-06-01T08:17:37;5.10;;;2.40;;
17631;SDS011;8934;51.194;17.150;2023-06-01T08:20:26;5.22;;;2.60;;
17631;SDS011;8934;51.194;17.150;2023-06-01T08:23:14;4.88;;;2.47;;
17631;SDS011;8934;51.194;17.150;2023-06-01T08:26:03;4.60;;;2.38;;
17631;SDS011;8934;51.194;17.150;2023-06-01T08:28:51;4.65;;;2.53;;
17631;SDS011;8934;51.194;17.150;2023-06-01T08:31:40;5.15;;;2.83;;
17631;SDS011;8934;51.194;17.150;2023-06-01T08:34:27;2.72;;;1.85;;
17631;SDS011;8934;51.194;17.150;2023-06-01T08:37:15;6.25;;;2.63;;
17631;SDS011;8934;51.194;17.150;2023-06-01T08:40:03;5.00;;;2.85;;
17631;SDS011;8934;51.194;17.150;2023-06-01T08:42:56;4.45;;;2.20;;
17631;SDS011;8934;51.194;17.150;2023-06-01T08:45:45;4.03;;;2.20;;
17631;SDS011;8934;51.194;17.150;2023-06-01T08:48:35;6.57;;;2.30;;
17631;SDS011;8934;51.194;17.150;2023-06-01T08:51:24;4.78;;;2.00;;
17631;SDS011;8934;51.194;17.150;2023-06-01T08:54:12;3.75;;;1.65;;
17631;SDS011;8934;51.194;17.150;2023-06-01T08:57:00;5.05;;;1.58;;
17631;SDS011;8934;51.194;17.150;2023-06-01T08:59:50;6.03;;;2.22;;
17631;SDS011;8934;51.194;17.150;2023-06-01T09:02:38;3.78;;;1.77;;
17631;SDS011;8934;51.194;17.150;2023-06-01T09:05:27;4.65;;;1.70;;
17631;SDS011;8934;51.194;17.150;2023-06-01T09:08:15;3.33;;;1.70;;
17631;SDS011;8934;51.194;17.150;2023-06-01T09:11:03;6.60;;;1.92;;
17631;SDS011;8934;51.194;17.150;2023-06-01T09:13:51;3.95;;;1.58;;
17631;SDS011;8934;51.194;17.150;2023-06-01T09:16:38;3.63;;;1.80;;
17631;SDS011;8934;51.194;17.150;2023-06-01T09:19:28;4.85;;;1.80;;
17631;SDS011;8934;51.194;17.150;2023-06-01T09:22:38;2.55;;;1.63;;
17631;SDS011;8934;51.194;17.150;2023-06-01T09:25:27;3.63;;;1.50;;
17631;SDS011;8934;51.194;17.150;2023-06-01T09:28:17;3.42;;;1.60;;
17631;SDS011;8934;51.194;17.150;2023-06-01T09:31:04;3.17;;;1.20;;
17631;SDS011;8934;51.194;17.150;2023-06-01T09:33:58;4.90;;;1.63;;
17631;SDS011;8934;51.194;17.150;2023-06-01T09:36:47;6.20;;;1.50;;
17631;SDS011;8934;51.194;17.150;2023-06-01T09:39:37;13.55;;;2.28;;
17631;SDS011;8934;51.194;17.150;2023-06-01T09:42:30;4.90;;;1.45;;
17631;SDS011;8934;51.194;17.150;2023-06-01T09:45:19;18.40;;;2.78;;
17631;SDS011;8934;51.194;17.150;2023-06-01T09:51:24;3.28;;;1.50;;
17631;SDS011;8934;51.194;17.150;2023-06-01T09:54:25;10.88;;;2.40;;
17631;SDS011;8934;51.194;17.150;2023-06-01T09:57:21;6.60;;;1.58;;
17631;SDS011;8934;51.194;17.150;2023-06-01T10:00:10;6.60;;;1.70;;
17631;SDS011;8934;51.194;17.150;2023-06-01T10:03:10;7.40;;;1.65;;
17631;SDS011;8934;51.194;17.150;2023-06-01T10:05:58;1.90;;;1.40;;
17631;SDS011;8934;51.194;17.150;2023-06-01T10:08:46;1.42;;;1.23;;
17631;SDS011;8934;51.194;17.150;2023-06-01T10:11:36;3.67;;;1.25;;
17631;SDS011;8934;51.194;17.150;2023-06-01T10:14:26;5.55;;;1.70;;
17631;SDS011;8934;51.194;17.150;2023-06-01T10:17:13;4.93;;;1.42;;
17631;SDS011;8934;51.194;17.150;2023-06-01T10:20:02;4.22;;;1.40;;
17631;SDS011;8934;51.194;17.150;2023-06-01T10:22:50;1.50;;;1.40;;
17631;SDS011;8934;51.194;17.150;2023-06-01T10:25:39;3.17;;;1.60;;
17631;SDS011;8934;51.194;17.150;2023-06-01T10:28:31;3.00;;;1.52;;
17631;SDS011;8934;51.194;17.150;2023-06-01T10:31:36;2.90;;;1.45;;
17631;SDS011;8934;51.194;17.150;2023-06-01T10:34:38;1.45;;;1.30;;
17631;SDS011;8934;51.194;17.150;2023-06-01T10:37:27;1.65;;;1.40;;
17631;SDS011;8934;51.194;17.150;2023-06-01T10:40:19;2.20;;;1.35;;
17631;SDS011;8934;51.194;17.150;2023-06-01T10:43:07;5.30;;;2.03;;
17631;SDS011;8934;51.194;17.150;2023-06-01T10:46:39;2.03;;;1.75;;
17631;SDS011;8934;51.194;17.150;2023-06-01T10:52:52;1.92;;;1.52;;
17631;SDS011;8934;51.194;17.150;2023-06-01T10:55:41;3.15;;;1.45;;
17631;SDS011;8934;51.194;17.150;2023-06-01T10:58:28;2.95;;;1.60;;
17631;SDS011;8934;51.194;17.150;2023-06-01T11:01:19;4.18;;;1.40;;
17631;SDS011;8934;51.194;17.150;2023-06-01T11:04:08;5.55;;;1.40;;
17631;SDS011;8934;51.194;17.150;2023-06-01T11:06:57;3.75;;;1.40;;
17631;SDS011;8934;51.194;17.150;2023-06-01T11:14:06;4.15;;;1.98;;
17631;SDS011;8934;51.194;17.150;2023-06-01T11:20:17;2.35;;;1.60;;
17631;SDS011;8934;51.194;17.150;2023-06-01T11:23:09;5.47;;;1.50;;
17631;SDS011;8934;51.194;17.150;2023-06-01T11:25:57;1.80;;;1.25;;
17631;SDS011;8934;51.194;17.150;2023-06-01T11:28:48;2.25;;;1.45;;
17631;SDS011;8934;51.194;17.150;2023-06-01T11:31:37;2.20;;;1.83;;
17631;SDS011;8934;51.194;17.150;2023-06-01T11:34:29;12.00;;;2.05;;
17631;SDS011;8934;51.194;17.150;2023-06-01T11:37:21;2.30;;;1.73;;
17631;SDS011;8934;51.194;17.150;2023-06-01T11:40:12;2.50;;;1.92;;
17631;SDS011;8934;51.194;17.150;2023-06-01T11:43:00;2.42;;;1.67;;
17631;SDS011;8934;51.194;17.150;2023-06-01T11:45:57;2.78;;;1.77;;
17631;SDS011;8934;51.194;17.150;2023-06-01T11:49:03;3.53;;;2.25;;
17631;SDS011;8934;51.194;17.150;2023-06-01T11:51:52;2.90;;;1.92;;
17631;SDS011;8934;51.194;17.150;2023-06-01T11:54:43;4.65;;;2.17;;
17631;SDS011;8934;51.194;17.150;2023-06-01T11:57:32;2.00;;;1.73;;
17631;SDS011;8934;51.194;17.150;2023-06-01T12:00:19;2.90;;;1.58;;
17631;SDS011;8934;51.194;17.150;2023-06-01T12:03:08;4.22;;;1.83;;
17631;SDS011;8934;51.194;17.150;2023-06-01T12:05:56;4.30;;;2.00;;
17631;SDS011;8934;51.194;17.150;2023-06-01T12:08:46;4.75;;;1.88;;
17631;SDS011;8934;51.194;17.150;2023-06-01T12:11:38;3.22;;;1.80;;
17631;SDS011;8934;51.194;17.150;2023-06-01T12:14:28;5.82;;;2.10;;
17631;SDS011;8934;51.194;17.150;2023-06-01T12:17:16;4.00;;;2.10;;
17631;SDS011;8934;51.194;17.150;2023-06-01T12:20:05;3.00;;;1.88;;
17631;SDS011;8934;51.194;17.150;2023-06-01T12:22:54;4.63;;;2.10;;
17631;SDS011;8934;51.194;17.150;2023-06-01T12:25:48;7.35;;;2.40;;
17631;SDS011;8934;51.194;17.150;2023-06-01T12:28:47;4.90;;;1.90;;
17631;SDS011;8934;51.194;17.150;2023-06-01T12:31:54;2.50;;;2.15;;
17631;SDS011;8934;51.194;17.150;2023-06-01T12:34:41;3.70;;;2.30;;
17631;SDS011;8934;51.194;17.150;2023-06-01T12:37:33;5.30;;;2.67;;
17631;SDS011;8934;51.194;17.150;2023-06-01T12:40:21;3.13;;;1.95;;
17631;SDS011;8934;51.194;17.150;2023-06-01T12:43:16;4.03;;;1.98;;
17631;SDS011;8934;51.194;17.150;2023-06-01T12:46:06;5.18;;;2.22;;
17631;SDS011;8934;51.194;17.150;2023-06-01T12:48:54;5.47;;;1.90;;
17631;SDS011;8934;51.194;17.150;2023-06-01T12:51:58;2.63;;;1.90;;
17631;SDS011;8934;51.194;17.150;2023-06-01T12:54:47;2.80;;;2.15;;
17631;SDS011;8934;51.194;17.150;2023-06-01T12:57:36;4.68;;;2.08;;
17631;SDS011;8934;51.194;17.150;2023-06-01T13:00:24;4.78;;;1.90;;
17631;SDS011;8934;51.194;17.150;2023-06-01T13:03:21;4.10;;;2.05;;
17631;SDS011;8934;51.194;17.150;2023-06-01T13:06:08;7.07;;;2.28;;
17631;SDS011;8934;51.194;17.150;2023-06-01T13:08:56;3.20;;;1.88;;
17631;SDS011;8934;51.194;17.150;2023-06-01T13:11:44;3.20;;;1.95;;
17631;SDS011;8934;51.194;17.150;2023-06-01T13:14:31;3.30;;;2.15;;
17631;SDS011;8934;51.194;17.150;2023-06-01T13:17:19;5.90;;;2.22;;
17631;SDS011;8934;51.194;17.150;2023-06-01T13:20:08;4.13;;;1.92;;
17631;SDS011;8934;51.194;17.150;2023-06-01T13:22:57;6.13;;;1.90;;
17631;SDS011;8934;51.194;17.150;2023-06-01T13:25:45;4.15;;;2.60;;
17631;SDS011;8934;51.194;17.150;2023-06-01T13:28:33;3.95;;;2.03;;
17631;SDS011;8934;51.194;17.150;2023-06-01T13:31:20;8.55;;;2.45;;
17631;SDS011;8934;51.194;17.150;2023-06-01T13:34:09;5.32;;;2.38;;
17631;SDS011;8934;51.194;17.150;2023-06-01T13:36:58;3.72;;;1.88;;
17631;SDS011;8934;51.194;17.150;2023-06-01T13:39:45;4.82;;;2.08;;
17631;SDS011;8934;51.194;17.150;2023-06-01T13:42:33;2.83;;;2.17;;
17631;SDS011;8934;51.194;17.150;2023-06-01T13:45:21;2.13;;;1.70;;
17631;SDS011;8934;51.194;17.150;2023-06-01T13:48:09;2.95;;;2.10;;
17631;SDS011;8934;51.194;17.150;2023-06-01T13:51:01;2.80;;;1.92;;
17631;SDS011;8934;51.194;17.150;2023-06-01T13:53:50;4.82;;;2.22;;
17631;SDS011;8934;51.194;17.150;2023-06-01T13:56:38;8.75;;;2.60;;
17631;SDS011;8934;51.194;17.150;2023-06-01T13:59:26;3.45;;;2.33;;
17631;SDS011;8934;51.194;17.150;2023-06-01T14:02:13;4.22;;;2.17;;
17631;SDS011;8934;51.194;17.150;2023-06-01T14:05:01;2.80;;;1.90;;
17631;SDS011;8934;51.194;17.150;2023-06-01T14:07:53;5.00;;;2.28;;
17631;SDS011;8934;51.194;17.150;2023-06-01T14:10:43;5.70;;;2.00;;
17631;SDS011;8934;51.194;17.150;2023-06-01T14:13:31;3.75;;;2.28;;
17631;SDS011;8934;51.194;17.150;2023-06-01T14:16:18;4.28;;;2.13;;
17631;SDS011;8934;51.194;17.150;2023-06-01T14:19:06;3.53;;;2.20;;
17631;SDS011;8934;51.194;17.150;2023-06-01T14:21:54;7.05;;;2.20;;
17631;SDS011;8934;51.194;17.150;2023-06-01T14:24:42;6.85;;;2.15;;
17631;SDS011;8934;51.194;17.150;2023-06-01T14:27:30;2.13;;;1.77;;
17631;SDS011;8934;51.194;17.150;2023-06-01T14:30:18;3.40;;;2.03;;
17631;SDS011;8934;51.194;17.150;2023-06-01T14:33:06;3.80;;;2.42;;
17631;SDS011;8934;51.194;17.150;2023-06-01T14:35:53;4.50;;;2.25;;
17631;SDS011;8934;51.194;17.150;2023-06-01T14:38:41;6.18;;;2.30;;
17631;SDS011;8934;51.194;17.150;2023-06-01T14:41:28;3.97;;;2.40;;
17631;SDS011;8934;51.194;17.150;2023-06-01T14:44:17;3.63;;;2.17;;
17631;SDS011;8934;51.194;17.150;2023-06-01T14:47:05;5.43;;;2.10;;
17631;SDS011;8934;51.194;17.150;2023-06-01T14:49:53;7.18;;;2.63;;
17631;SDS011;8934;51.194;17.150;2023-06-01T14:52:42;16.13;;;3.55;;
17631;SDS011;8934;51.194;17.150;2023-06-01T14:55:29;2.70;;;1.92;;
17631;SDS011;8934;51.194;17.150;2023-06-01T14:58:17;6.53;;;2.65;;
17631;SDS011;8934;51.194;17.150;2023-06-01T15:01:06;5.15;;;2.55;;
17631;SDS011;8934;51.194;17.150;2023-06-01T15:03:53;3.22;;;2.13;;
17631;SDS011;8934;51.194;17.150;2023-06-01T15:06:41;8.20;;;2.55;;
17631;SDS011;8934;51.194;17.150;2023-06-01T15:09:28;3.53;;;2.10;;
17631;SDS011;8934;51.194;17.150;2023-06-01T15:12:16;4.70;;;2.42;;
17631;SDS011;8934;51.194;17.150;2023-06-01T15:15:03;2.13;;;1.70;;
17631;SDS011;8934;51.194;17.150;2023-06-01T15:17:53;7.82;;;2.15;;
17631;SDS011;8934;51.194;17.150;2023-06-01T15:20:41;3.58;;;2.20;;
17631;SDS011;8934;51.194;17.150;2023-06-01T15:23:30;3.08;;;2.20;;
17631;SDS011;8934;51.194;17.150;2023-06-01T15:26:17;3.60;;;2.03;;
17631;SDS011;8934;51.194;17.150;2023-06-01T15:29:04;2.85;;;2.33;;
17631;SDS011;8934;51.194;17.150;2023-06-01T15:31:52;4.20;;;2.22;;
17631;SDS011;8934;51.194;17.150;2023-06-01T15:34:41;3.53;;;2.25;;
17631;SDS011;8934;51.194;17.150;2023-06-01T15:37:29;8.50;;;2.55;;
17631;SDS011;8934;51.194;17.150;2023-06-01T15:40:17;4.28;;;2.65;;
17631;SDS011;8934;51.194;17.150;2023-06-01T15:43:05;4.43;;;2.53;;
17631;SDS011;8934;51.194;17.150;2023-06-01T15:45:52;3.03;;;2.13;;
17631;SDS011;8934;51.194;17.150;2023-06-01T15:48:42;3.85;;;2.03;;
17631;SDS011;8934;51.194;17.150;2023-06-01T15:51:31;3.92;;;2.20;;
17631;SDS011;8934;51.194;17.150;2023-06-01T15:54:19;4.38;;;2.90;;
17631;SDS011;8934;51.194;17.150;2023-06-01T15:57:06;4.93;;;2.63;;
17631;SDS011;8934;51.194;17.150;2023-06-01T15:59:54;3.90;;;2.20;;
17631;SDS011;8934;51.194;17.150;2023-06-01T16:02:41;4.82;;;2.40;;
17631;SDS011;8934;51.194;17.150;2023-06-01T16:05:30;3.15;;;2.60;;
17631;SDS011;8934;51.194;17.150;2023-06-01T16:08:19;4.22;;;2.83;;
17631;SDS011;8934;51.194;17.150;2023-06-01T16:11:06;4.88;;;3.00;;
17631;SDS011;8934;51.194;17.150;2023-06-01T16:13:54;4.63;;;3.22;;
17631;SDS011;8934;51.194;17.150;2023-06-01T16:16:41;3.67;;;2.95;;
17631;SDS011;8934;51.194;17.150;2023-06-01T16:19:30;5.63;;;3.55;;
17631;SDS011;8934;51.194;17.150;2023-06-01T16:22:18;8.50;;;3.53;;
17631;SDS011;8934;51.194;17.150;2023-06-01T16:25:07;6.22;;;3.63;;
17631;SDS011;8934;51.194;17.150;2023-06-01T16:27:55;7.47;;;3.67;;
17631;SDS011;8934;51.194;17.150;2023-06-01T16:30:43;5.10;;;3.42;;
17631;SDS011;8934;51.194;17.150;2023-06-01T16:33:31;7.13;;;3.38;;
17631;SDS011;8934;51.194;17.150;2023-06-01T16:36:18;5.30;;;3.35;;
17631;SDS011;8934;51.194;17.150;2023-06-01T16:39:05;6.63;;;3.08;;
17631;SDS011;8934;51.194;17.150;2023-06-01T16:41:54;5.35;;;2.92;;
17631;SDS011;8934;51.194;17.150;2023-06-01T16:44:42;8.25;;;3.47;;
17631;SDS011;8934;51.194;17.150;2023-06-01T16:47:29;7.65;;;3.40;;
17631;SDS011;8934;51.194;17.150;2023-06-01T16:50:17;18.88;;;4.25;;
17631;SDS011;8934;51.194;17.150;2023-06-01T16:53:05;7.07;;;3.92;;
17631;SDS011;8934;51.194;17.150;2023-06-01T16:55:52;6.47;;;3.88;;
17631;SDS011;8934;51.194;17.150;2023-06-01T16:58:41;5.10;;;3.63;;
17631;SDS011;8934;51.194;17.150;2023-06-01T17:01:29;5.25;;;3.78;;
17631;SDS011;8934;51.194;17.150;2023-06-01T17:04:19;12.70;;;3.60;;
17631;SDS011;8934;51.194;17.150;2023-06-01T17:07:06;7.07;;;3.22;;
17631;SDS011;8934;51.194;17.150;2023-06-01T17:09:53;7.05;;;3.53;;
17631;SDS011;8934;51.194;17.150;2023-06-01T17:12:41;4.07;;;3.38;;
17631;SDS011;8934;51.194;17.150;2023-06-01T17:15:30;9.27;;;3.65;;
17631;SDS011;8934;51.194;17.150;2023-06-01T17:18:18;5.82;;;3.55;;